Meadowood Estates, Indiana
Current Conditions -  °F | °C
As of 3:55 AM on Saturday 25 Oct 2014 (Local Time) from KMZZ Reporting Station
Haze Haze  
Wind Chill: 47°   Ceiling: 10000
Heat Index: 49°   Visibility: 5mi
Dew Point: 47°   Wind: 5mph
Humidity: 95%   Direction: 180°S
Pressure: 29.97"   Gusts: NA
Location:  40.3067°N, 85.834°W
Report Text: KMZZ 250755Z AUTO 18004KT 5SM BR SCT060 OVC100 09/09 A2997 RMK AO2 T00920085
Loading
Personal Weather Stations






























Interactive Weather Map
Tropical Storm Tracking
New forecast layout! Learn more

10-Day Weather Forecast

Advertisements
Track Severe Weather on mobile